sensor_id;sensor_type;location;lat;lon;timestamp;P1;durP1;ratioP1;P2;durP2;ratioP2
18190;SDS011;47004;51.366;12.348;2024-01-06T00:00:55;13.07;;;3.87;;
18190;SDS011;47004;51.366;12.348;2024-01-06T00:02:56;11.43;;;3.70;;
18190;SDS011;47004;51.366;12.348;2024-01-06T00:04:58;5.67;;;3.30;;
18190;SDS011;47004;51.366;12.348;2024-01-06T00:06:59;6.23;;;3.40;;
18190;SDS011;47004;51.366;12.348;2024-01-06T00:09:02;7.47;;;3.60;;
18190;SDS011;47004;51.366;12.348;2024-01-06T00:11:04;8.60;;;3.47;;
18190;SDS011;47004;51.366;12.348;2024-01-06T00:13:06;4.53;;;3.13;;
18190;SDS011;47004;51.366;12.348;2024-01-06T00:15:09;4.80;;;2.70;;
18190;SDS011;47004;51.366;12.348;2024-01-06T00:17:11;5.43;;;2.70;;
18190;SDS011;47004;51.366;12.348;2024-01-06T00:19:13;6.47;;;3.67;;
18190;SDS011;47004;51.366;12.348;2024-01-06T00:21:17;7.70;;;3.10;;
18190;SDS011;47004;51.366;12.348;2024-01-06T00:23:19;8.10;;;3.30;;
18190;SDS011;47004;51.366;12.348;2024-01-06T00:25:21;6.50;;;3.70;;
18190;SDS011;47004;51.366;12.348;2024-01-06T00:27:23;7.53;;;3.60;;
18190;SDS011;47004;51.366;12.348;2024-01-06T00:29:24;8.33;;;3.73;;
18190;SDS011;47004;51.366;12.348;2024-01-06T00:31:28;10.13;;;4.07;;
18190;SDS011;47004;51.366;12.348;2024-01-06T00:33:30;8.27;;;3.93;;
18190;SDS011;47004;51.366;12.348;2024-01-06T00:35:32;9.00;;;3.90;;
18190;SDS011;47004;51.366;12.348;2024-01-06T00:37:34;8.40;;;3.60;;
18190;SDS011;47004;51.366;12.348;2024-01-06T00:39:35;9.70;;;3.63;;
18190;SDS011;47004;51.366;12.348;2024-01-06T00:41:37;6.53;;;3.40;;
18190;SDS011;47004;51.366;12.348;2024-01-06T00:43:39;9.67;;;3.57;;
18190;SDS011;47004;51.366;12.348;2024-01-06T00:45:41;8.00;;;3.80;;
18190;SDS011;47004;51.366;12.348;2024-01-06T00:47:47;9.53;;;3.80;;
18190;SDS011;47004;51.366;12.348;2024-01-06T00:49:51;8.07;;;3.50;;
18190;SDS011;47004;51.366;12.348;2024-01-06T00:51:53;7.80;;;3.83;;
18190;SDS011;47004;51.366;12.348;2024-01-06T00:53:55;8.53;;;3.90;;
18190;SDS011;47004;51.366;12.348;2024-01-06T00:55:57;11.33;;;4.67;;
18190;SDS011;47004;51.366;12.348;2024-01-06T00:58:18;8.77;;;4.37;;
18190;SDS011;47004;51.366;12.348;2024-01-06T01:00:20;8.33;;;3.67;;
18190;SDS011;47004;51.366;12.348;2024-01-06T01:02:22;7.53;;;3.40;;
18190;SDS011;47004;51.366;12.348;2024-01-06T01:04:26;9.83;;;3.93;;
18190;SDS011;47004;51.366;12.348;2024-01-06T01:06:28;8.17;;;3.73;;
18190;SDS011;47004;51.366;12.348;2024-01-06T01:08:29;8.87;;;3.57;;
18190;SDS011;47004;51.366;12.348;2024-01-06T01:10:32;9.17;;;3.80;;
18190;SDS011;47004;51.366;12.348;2024-01-06T01:12:34;9.73;;;3.80;;
18190;SDS011;47004;51.366;12.348;2024-01-06T01:14:36;8.43;;;3.37;;
18190;SDS011;47004;51.366;12.348;2024-01-06T01:16:38;7.30;;;3.50;;
18190;SDS011;47004;51.366;12.348;2024-01-06T01:18:40;9.23;;;3.77;;
18190;SDS011;47004;51.366;12.348;2024-01-06T01:20:42;7.47;;;3.43;;
18190;SDS011;47004;51.366;12.348;2024-01-06T01:22:44;6.93;;;3.50;;
18190;SDS011;47004;51.366;12.348;2024-01-06T01:24:46;9.43;;;3.40;;
18190;SDS011;47004;51.366;12.348;2024-01-06T01:26:48;7.60;;;3.70;;
18190;SDS011;47004;51.366;12.348;2024-01-06T01:28:50;16.07;;;5.93;;
18190;SDS011;47004;51.366;12.348;2024-01-06T01:30:51;11.00;;;5.33;;
18190;SDS011;47004;51.366;12.348;2024-01-06T01:32:53;11.10;;;4.40;;
18190;SDS011;47004;51.366;12.348;2024-01-06T01:34:55;8.83;;;4.27;;
18190;SDS011;47004;51.366;12.348;2024-01-06T01:36:58;8.73;;;4.40;;
18190;SDS011;47004;51.366;12.348;2024-01-06T01:39:00;7.13;;;3.90;;
18190;SDS011;47004;51.366;12.348;2024-01-06T01:41:02;6.67;;;3.93;;
18190;SDS011;47004;51.366;12.348;2024-01-06T01:43:04;8.67;;;3.93;;
18190;SDS011;47004;51.366;12.348;2024-01-06T01:45:07;7.90;;;3.90;;
18190;SDS011;47004;51.366;12.348;2024-01-06T01:47:09;6.83;;;3.77;;
18190;SDS011;47004;51.366;12.348;2024-01-06T01:49:12;6.90;;;4.00;;
18190;SDS011;47004;51.366;12.348;2024-01-06T01:51:14;7.60;;;3.80;;
18190;SDS011;47004;51.366;12.348;2024-01-06T01:53:17;7.33;;;3.97;;
18190;SDS011;47004;51.366;12.348;2024-01-06T01:55:19;7.43;;;3.27;;
18190;SDS011;47004;51.366;12.348;2024-01-06T01:57:22;8.03;;;3.90;;
18190;SDS011;47004;51.366;12.348;2024-01-06T01:59:26;11.33;;;4.50;;
18190;SDS011;47004;51.366;12.348;2024-01-06T02:01:28;7.60;;;3.83;;
18190;SDS011;47004;51.366;12.348;2024-01-06T02:03:30;6.27;;;3.90;;
18190;SDS011;47004;51.366;12.348;2024-01-06T02:05:32;8.07;;;4.13;;
18190;SDS011;47004;51.366;12.348;2024-01-06T02:07:34;6.83;;;3.80;;
18190;SDS011;47004;51.366;12.348;2024-01-06T02:09:38;10.23;;;4.83;;
18190;SDS011;47004;51.366;12.348;2024-01-06T02:11:40;10.37;;;4.20;;
18190;SDS011;47004;51.366;12.348;2024-01-06T02:13:42;5.70;;;3.30;;
18190;SDS011;47004;51.366;12.348;2024-01-06T02:15:43;10.90;;;4.27;;
18190;SDS011;47004;51.366;12.348;2024-01-06T02:17:47;7.80;;;4.00;;
18190;SDS011;47004;51.366;12.348;2024-01-06T02:19:49;9.37;;;4.03;;
18190;SDS011;47004;51.366;12.348;2024-01-06T02:21:53;8.20;;;4.10;;
18190;SDS011;47004;51.366;12.348;2024-01-06T02:23:55;9.30;;;4.03;;
18190;SDS011;47004;51.366;12.348;2024-01-06T02:25:57;7.27;;;3.70;;
18190;SDS011;47004;51.366;12.348;2024-01-06T02:27:58;10.37;;;4.43;;
18190;SDS011;47004;51.366;12.348;2024-01-06T02:30:00;14.90;;;4.50;;
18190;SDS011;47004;51.366;12.348;2024-01-06T02:32:02;6.93;;;4.13;;
18190;SDS011;47004;51.366;12.348;2024-01-06T02:34:04;14.87;;;5.23;;
18190;SDS011;47004;51.366;12.348;2024-01-06T02:36:15;8.70;;;4.17;;
18190;SDS011;47004;51.366;12.348;2024-01-06T02:38:19;7.60;;;3.80;;
18190;SDS011;47004;51.366;12.348;2024-01-06T02:40:21;10.23;;;4.10;;
18190;SDS011;47004;51.366;12.348;2024-01-06T02:42:23;7.13;;;4.40;;
18190;SDS011;47004;51.366;12.348;2024-01-06T02:44:25;9.60;;;4.20;;
18190;SDS011;47004;51.366;12.348;2024-01-06T02:46:27;7.73;;;3.97;;
18190;SDS011;47004;51.366;12.348;2024-01-06T02:48:29;12.87;;;4.50;;
18190;SDS011;47004;51.366;12.348;2024-01-06T02:50:31;9.90;;;4.80;;
18190;SDS011;47004;51.366;12.348;2024-01-06T02:52:32;10.93;;;4.40;;
18190;SDS011;47004;51.366;12.348;2024-01-06T02:54:35;7.37;;;4.20;;
18190;SDS011;47004;51.366;12.348;2024-01-06T02:56:37;7.10;;;4.13;;
18190;SDS011;47004;51.366;12.348;2024-01-06T02:58:39;7.87;;;4.47;;
18190;SDS011;47004;51.366;12.348;2024-01-06T03:00:44;10.27;;;3.73;;
18190;SDS011;47004;51.366;12.348;2024-01-06T03:02:45;8.93;;;4.03;;
18190;SDS011;47004;51.366;12.348;2024-01-06T03:04:47;9.40;;;3.97;;
18190;SDS011;47004;51.366;12.348;2024-01-06T03:06:49;10.90;;;4.27;;
18190;SDS011;47004;51.366;12.348;2024-01-06T03:08:53;9.37;;;4.53;;
18190;SDS011;47004;51.366;12.348;2024-01-06T03:10:56;9.37;;;4.40;;
18190;SDS011;47004;51.366;12.348;2024-01-06T03:12:59;9.77;;;4.30;;
18190;SDS011;47004;51.366;12.348;2024-01-06T03:15:01;8.70;;;4.20;;
18190;SDS011;47004;51.366;12.348;2024-01-06T03:17:03;12.00;;;4.00;;
18190;SDS011;47004;51.366;12.348;2024-01-06T03:19:05;10.63;;;4.57;;
18190;SDS011;47004;51.366;12.348;2024-01-06T03:21:15;9.30;;;4.77;;
18190;SDS011;47004;51.366;12.348;2024-01-06T03:23:18;18.67;;;5.13;;
18190;SDS011;47004;51.366;12.348;2024-01-06T03:25:20;5.70;;;3.70;;
18190;SDS011;47004;51.366;12.348;2024-01-06T03:27:23;9.27;;;4.20;;
18190;SDS011;47004;51.366;12.348;2024-01-06T03:29:25;12.77;;;4.27;;
18190;SDS011;47004;51.366;12.348;2024-01-06T03:31:27;9.00;;;4.87;;
18190;SDS011;47004;51.366;12.348;2024-01-06T03:33:29;8.77;;;4.20;;
18190;SDS011;47004;51.366;12.348;2024-01-06T03:35:31;9.77;;;4.50;;
18190;SDS011;47004;51.366;12.348;2024-01-06T03:37:33;15.60;;;5.37;;
18190;SDS011;47004;51.366;12.348;2024-01-06T03:39:35;13.80;;;4.80;;
18190;SDS011;47004;51.366;12.348;2024-01-06T03:41:37;8.00;;;4.30;;
18190;SDS011;47004;51.366;12.348;2024-01-06T03:43:39;11.77;;;4.53;;
18190;SDS011;47004;51.366;12.348;2024-01-06T03:45:41;6.63;;;4.10;;
18190;SDS011;47004;51.366;12.348;2024-01-06T03:47:43;8.47;;;4.23;;
18190;SDS011;47004;51.366;12.348;2024-01-06T03:49:45;9.70;;;4.40;;
18190;SDS011;47004;51.366;12.348;2024-01-06T03:51:47;8.80;;;4.47;;
18190;SDS011;47004;51.366;12.348;2024-01-06T03:53:48;8.77;;;4.03;;
18190;SDS011;47004;51.366;12.348;2024-01-06T03:55:50;7.30;;;4.37;;
18190;SDS011;47004;51.366;12.348;2024-01-06T03:57:52;10.57;;;4.47;;
18190;SDS011;47004;51.366;12.348;2024-01-06T03:59:55;15.60;;;4.90;;
18190;SDS011;47004;51.366;12.348;2024-01-06T04:01:57;6.77;;;3.80;;
18190;SDS011;47004;51.366;12.348;2024-01-06T04:03:59;11.30;;;4.87;;
18190;SDS011;47004;51.366;12.348;2024-01-06T04:06:00;10.30;;;4.23;;
18190;SDS011;47004;51.366;12.348;2024-01-06T04:08:03;6.90;;;4.03;;
18190;SDS011;47004;51.366;12.348;2024-01-06T04:10:05;9.17;;;4.37;;
18190;SDS011;47004;51.366;12.348;2024-01-06T04:12:07;7.53;;;3.60;;
18190;SDS011;47004;51.366;12.348;2024-01-06T04:14:09;8.07;;;4.03;;
18190;SDS011;47004;51.366;12.348;2024-01-06T04:16:12;9.20;;;3.87;;
18190;SDS011;47004;51.366;12.348;2024-01-06T04:18:14;8.80;;;4.37;;
18190;SDS011;47004;51.366;12.348;2024-01-06T04:20:15;8.33;;;3.60;;
18190;SDS011;47004;51.366;12.348;2024-01-06T04:22:17;8.30;;;4.17;;
18190;SDS011;47004;51.366;12.348;2024-01-06T04:24:19;7.97;;;4.10;;
18190;SDS011;47004;51.366;12.348;2024-01-06T04:26:21;7.67;;;3.70;;
18190;SDS011;47004;51.366;12.348;2024-01-06T04:28:22;8.97;;;3.80;;
18190;SDS011;47004;51.366;12.348;2024-01-06T04:30:24;7.90;;;3.47;;
18190;SDS011;47004;51.366;12.348;2024-01-06T04:32:27;8.90;;;4.50;;
18190;SDS011;47004;51.366;12.348;2024-01-06T04:34:29;8.07;;;3.93;;
18190;SDS011;47004;51.366;12.348;2024-01-06T04:36:31;8.00;;;4.23;;
18190;SDS011;47004;51.366;12.348;2024-01-06T04:38:33;10.67;;;4.60;;
18190;SDS011;47004;51.366;12.348;2024-01-06T04:40:35;13.80;;;6.17;;
18190;SDS011;47004;51.366;12.348;2024-01-06T04:42:37;12.93;;;5.53;;
18190;SDS011;47004;51.366;12.348;2024-01-06T04:44:39;9.77;;;5.13;;
18190;SDS011;47004;51.366;12.348;2024-01-06T04:46:41;9.50;;;4.93;;
18190;SDS011;47004;51.366;12.348;2024-01-06T04:48:44;9.13;;;4.60;;
18190;SDS011;47004;51.366;12.348;2024-01-06T04:50:46;10.40;;;4.53;;
18190;SDS011;47004;51.366;12.348;2024-01-06T04:52:48;14.40;;;4.87;;
18190;SDS011;47004;51.366;12.348;2024-01-06T04:54:49;9.60;;;4.20;;
18190;SDS011;47004;51.366;12.348;2024-01-06T04:56:51;8.10;;;4.10;;
18190;SDS011;47004;51.366;12.348;2024-01-06T04:58:53;6.90;;;3.80;;
18190;SDS011;47004;51.366;12.348;2024-01-06T05:00:54;7.97;;;4.13;;
18190;SDS011;47004;51.366;12.348;2024-01-06T05:02:57;8.00;;;4.50;;
18190;SDS011;47004;51.366;12.348;2024-01-06T05:05:00;10.30;;;4.90;;
18190;SDS011;47004;51.366;12.348;2024-01-06T05:07:02;11.83;;;4.83;;
18190;SDS011;47004;51.366;12.348;2024-01-06T05:09:04;7.70;;;4.37;;
18190;SDS011;47004;51.366;12.348;2024-01-06T05:11:06;10.30;;;4.40;;
18190;SDS011;47004;51.366;12.348;2024-01-06T05:13:08;9.90;;;4.30;;
18190;SDS011;47004;51.366;12.348;2024-01-06T05:15:10;11.17;;;4.50;;
18190;SDS011;47004;51.366;12.348;2024-01-06T05:17:13;8.60;;;4.50;;
18190;SDS011;47004;51.366;12.348;2024-01-06T05:19:15;6.83;;;3.93;;
18190;SDS011;47004;51.366;12.348;2024-01-06T05:21:23;8.03;;;4.17;;
18190;SDS011;47004;51.366;12.348;2024-01-06T05:23:25;7.60;;;4.10;;
18190;SDS011;47004;51.366;12.348;2024-01-06T05:25:27;8.53;;;4.67;;
18190;SDS011;47004;51.366;12.348;2024-01-06T05:27:29;9.87;;;4.90;;
18190;SDS011;47004;51.366;12.348;2024-01-06T05:29:31;9.57;;;5.40;;
18190;SDS011;47004;51.366;12.348;2024-01-06T05:31:33;11.60;;;4.93;;
18190;SDS011;47004;51.366;12.348;2024-01-06T05:33:35;11.07;;;5.10;;
18190;SDS011;47004;51.366;12.348;2024-01-06T05:35:37;8.20;;;4.50;;
18190;SDS011;47004;51.366;12.348;2024-01-06T05:37:40;9.13;;;4.80;;
18190;SDS011;47004;51.366;12.348;2024-01-06T05:39:42;10.00;;;4.60;;
18190;SDS011;47004;51.366;12.348;2024-01-06T05:41:44;9.40;;;4.90;;
18190;SDS011;47004;51.366;12.348;2024-01-06T05:43:46;9.60;;;4.50;;
18190;SDS011;47004;51.366;12.348;2024-01-06T05:45:48;9.57;;;4.93;;
18190;SDS011;47004;51.366;12.348;2024-01-06T05:47:50;12.17;;;4.90;;
18190;SDS011;47004;51.366;12.348;2024-01-06T05:49:52;7.40;;;4.30;;
18190;SDS011;47004;51.366;12.348;2024-01-06T05:51:53;9.80;;;4.93;;
18190;SDS011;47004;51.366;12.348;2024-01-06T05:53:57;9.03;;;4.47;;
18190;SDS011;47004;51.366;12.348;2024-01-06T05:55:59;9.27;;;5.00;;
18190;SDS011;47004;51.366;12.348;2024-01-06T05:58:00;9.33;;;5.17;;
18190;SDS011;47004;51.366;12.348;2024-01-06T06:00:03;10.87;;;5.23;;
18190;SDS011;47004;51.366;12.348;2024-01-06T06:02:07;10.57;;;5.23;;
18190;SDS011;47004;51.366;12.348;2024-01-06T06:04:09;10.30;;;5.07;;
18190;SDS011;47004;51.366;12.348;2024-01-06T06:06:12;14.10;;;5.23;;
18190;SDS011;47004;51.366;12.348;2024-01-06T06:08:14;12.77;;;5.23;;
18190;SDS011;47004;51.366;12.348;2024-01-06T06:10:17;10.90;;;5.73;;
18190;SDS011;47004;51.366;12.348;2024-01-06T06:12:19;11.97;;;5.27;;
18190;SDS011;47004;51.366;12.348;2024-01-06T06:14:20;11.17;;;6.10;;
18190;SDS011;47004;51.366;12.348;2024-01-06T06:16:22;11.97;;;5.87;;
18190;SDS011;47004;51.366;12.348;2024-01-06T06:18:24;12.77;;;6.13;;
18190;SDS011;47004;51.366;12.348;2024-01-06T06:20:31;12.47;;;6.33;;
18190;SDS011;47004;51.366;12.348;2024-01-06T06:23:05;11.90;;;6.27;;
18190;SDS011;47004;51.366;12.348;2024-01-06T07:08:44;12.43;;;5.40;;
18190;SDS011;47004;51.366;12.348;2024-01-06T07:10:44;10.80;;;5.53;;
18190;SDS011;47004;51.366;12.348;2024-01-06T07:12:46;11.83;;;5.17;;
18190;SDS011;47004;51.366;12.348;2024-01-06T07:14:48;12.43;;;5.83;;
18190;SDS011;47004;51.366;12.348;2024-01-06T07:16:50;11.17;;;5.97;;
18190;SDS011;47004;51.366;12.348;2024-01-06T07:18:52;9.23;;;5.93;;
18190;SDS011;47004;51.366;12.348;2024-01-06T07:20:54;11.03;;;5.83;;
18190;SDS011;47004;51.366;12.348;2024-01-06T07:22:56;10.67;;;5.83;;
18190;SDS011;47004;51.366;12.348;2024-01-06T07:24:59;19.10;;;6.63;;
18190;SDS011;47004;51.366;12.348;2024-01-06T07:27:01;14.90;;;6.33;;
18190;SDS011;47004;51.366;12.348;2024-01-06T07:29:07;12.77;;;5.60;;
18190;SDS011;47004;51.366;12.348;2024-01-06T07:31:34;11.07;;;6.03;;
18190;SDS011;47004;51.366;12.348;2024-01-06T07:36:59;13.43;;;6.03;;
18190;SDS011;47004;51.366;12.348;2024-01-06T07:39:18;10.53;;;5.63;;
18190;SDS011;47004;51.366;12.348;2024-01-06T07:44:25;15.90;;;6.73;;
18190;SDS011;47004;51.366;12.348;2024-01-06T07:54:02;16.40;;;7.57;;
18190;SDS011;47004;51.366;12.348;2024-01-06T07:56:40;18.83;;;7.50;;
18190;SDS011;47004;51.366;12.348;2024-01-06T08:05:56;14.57;;;6.00;;
18190;SDS011;47004;51.366;12.348;2024-01-06T08:14:14;10.30;;;5.73;;
18190;SDS011;47004;51.366;12.348;2024-01-06T08:16:17;10.87;;;5.57;;
18190;SDS011;47004;51.366;12.348;2024-01-06T08:18:20;10.63;;;5.33;;
18190;SDS011;47004;51.366;12.348;2024-01-06T08:20:22;10.53;;;5.50;;
18190;SDS011;47004;51.366;12.348;2024-01-06T08:22:25;12.67;;;6.10;;
18190;SDS011;47004;51.366;12.348;2024-01-06T08:24:27;12.00;;;6.33;;
18190;SDS011;47004;51.366;12.348;2024-01-06T08:26:34;11.20;;;5.23;;
18190;SDS011;47004;51.366;12.348;2024-01-06T08:28:50;9.90;;;5.00;;
18190;SDS011;47004;51.366;12.348;2024-01-06T08:30:55;8.40;;;5.57;;
18190;SDS011;47004;51.366;12.348;2024-01-06T08:32:58;11.73;;;5.70;;
18190;SDS011;47004;51.366;12.348;2024-01-06T08:35:02;11.87;;;6.10;;
18190;SDS011;47004;51.366;12.348;2024-01-06T08:37:04;10.37;;;5.80;;
18190;SDS011;47004;51.366;12.348;2024-01-06T08:39:07;11.10;;;5.73;;
18190;SDS011;47004;51.366;12.348;2024-01-06T08:41:09;10.97;;;5.40;;
18190;SDS011;47004;51.366;12.348;2024-01-06T08:43:11;15.00;;;6.37;;
18190;SDS011;47004;51.366;12.348;2024-01-06T08:45:13;11.63;;;6.43;;
18190;SDS011;47004;51.366;12.348;2024-01-06T08:47:15;14.87;;;6.80;;
18190;SDS011;47004;51.366;12.348;2024-01-06T08:49:17;13.63;;;6.70;;
18190;SDS011;47004;51.366;12.348;2024-01-06T08:51:19;10.40;;;6.03;;
18190;SDS011;47004;51.366;12.348;2024-01-06T08:53:21;9.57;;;5.47;;
18190;SDS011;47004;51.366;12.348;2024-01-06T08:55:24;11.27;;;5.80;;
18190;SDS011;47004;51.366;12.348;2024-01-06T08:57:26;12.27;;;5.97;;
18190;SDS011;47004;51.366;12.348;2024-01-06T08:59:28;10.03;;;5.20;;
18190;SDS011;47004;51.366;12.348;2024-01-06T09:01:30;11.80;;;6.23;;
18190;SDS011;47004;51.366;12.348;2024-01-06T09:03:31;9.90;;;5.70;;
18190;SDS011;47004;51.366;12.348;2024-01-06T09:05:33;14.57;;;6.17;;
18190;SDS011;47004;51.366;12.348;2024-01-06T09:07:36;11.73;;;6.03;;
18190;SDS011;47004;51.366;12.348;2024-01-06T09:09:38;9.57;;;5.73;;
18190;SDS011;47004;51.366;12.348;2024-01-06T09:11:41;9.20;;;5.10;;
18190;SDS011;47004;51.366;12.348;2024-01-06T09:13:44;10.37;;;5.27;;
18190;SDS011;47004;51.366;12.348;2024-01-06T09:15:46;10.50;;;5.50;;
18190;SDS011;47004;51.366;12.348;2024-01-06T09:17:48;9.97;;;5.60;;
18190;SDS011;47004;51.366;12.348;2024-01-06T09:19:50;10.13;;;5.20;;
18190;SDS011;47004;51.366;12.348;2024-01-06T09:21:54;9.60;;;5.17;;
18190;SDS011;47004;51.366;12.348;2024-01-06T09:23:56;8.63;;;5.20;;
18190;SDS011;47004;51.366;12.348;2024-01-06T09:25:58;8.07;;;5.00;;
18190;SDS011;47004;51.366;12.348;2024-01-06T09:28:01;7.77;;;5.17;;
18190;SDS011;47004;51.366;12.348;2024-01-06T09:30:03;12.40;;;5.70;;
18190;SDS011;47004;51.366;12.348;2024-01-06T09:32:07;9.77;;;5.13;;
18190;SDS011;47004;51.366;12.348;2024-01-06T09:34:09;9.40;;;5.33;;
18190;SDS011;47004;51.366;12.348;2024-01-06T09:36:12;8.93;;;5.33;;
18190;SDS011;47004;51.366;12.348;2024-01-06T09:38:14;8.53;;;5.10;;
18190;SDS011;47004;51.366;12.348;2024-01-06T09:40:21;14.13;;;5.97;;
18190;SDS011;47004;51.366;12.348;2024-01-06T09:42:24;9.60;;;5.33;;
18190;SDS011;47004;51.366;12.348;2024-01-06T09:44:27;12.47;;;5.63;;
18190;SDS011;47004;51.366;12.348;2024-01-06T09:46:28;8.90;;;5.30;;
18190;SDS011;47004;51.366;12.348;2024-01-06T09:48:30;18.30;;;7.20;;
18190;SDS011;47004;51.366;12.348;2024-01-06T09:50:37;16.10;;;6.87;;
18190;SDS011;47004;51.366;12.348;2024-01-06T09:52:41;17.17;;;6.53;;
18190;SDS011;47004;51.366;12.348;2024-01-06T09:54:45;13.63;;;7.27;;
18190;SDS011;47004;51.366;12.348;2024-01-06T09:56:51;13.97;;;6.80;;
18190;SDS011;47004;51.366;12.348;2024-01-06T09:58:53;24.93;;;11.83;;
18190;SDS011;47004;51.366;12.348;2024-01-06T10:00:56;24.70;;;12.43;;
18190;SDS011;47004;51.366;12.348;2024-01-06T10:02:59;18.63;;;10.83;;
18190;SDS011;47004;51.366;12.348;2024-01-06T10:05:01;16.77;;;8.63;;
18190;SDS011;47004;51.366;12.348;2024-01-06T10:07:03;12.13;;;7.17;;
18190;SDS011;47004;51.366;12.348;2024-01-06T10:09:05;14.37;;;7.63;;
18190;SDS011;47004;51.366;12.348;2024-01-06T10:11:10;15.00;;;7.17;;
18190;SDS011;47004;51.366;12.348;2024-01-06T10:13:12;12.27;;;7.57;;
18190;SDS011;47004;51.366;12.348;2024-01-06T10:15:18;13.23;;;7.47;;
18190;SDS011;47004;51.366;12.348;2024-01-06T10:17:23;14.80;;;7.53;;
18190;SDS011;47004;51.366;12.348;2024-01-06T10:19:24;14.80;;;8.40;;
18190;SDS011;47004;51.366;12.348;2024-01-06T10:21:29;16.93;;;8.57;;
18190;SDS011;47004;51.366;12.348;2024-01-06T10:23:35;14.27;;;8.10;;
18190;SDS011;47004;51.366;12.348;2024-01-06T10:25:38;14.73;;;8.33;;
18190;SDS011;47004;51.366;12.348;2024-01-06T10:27:42;16.00;;;7.83;;
18190;SDS011;47004;51.366;12.348;2024-01-06T10:29:44;13.10;;;8.07;;
18190;SDS011;47004;51.366;12.348;2024-01-06T10:31:46;17.53;;;8.37;;
18190;SDS011;47004;51.366;12.348;2024-01-06T10:33:53;18.43;;;8.20;;
18190;SDS011;47004;51.366;12.348;2024-01-06T10:35:55;14.87;;;8.50;;
18190;SDS011;47004;51.366;12.348;2024-01-06T10:37:58;15.87;;;8.80;;
18190;SDS011;47004;51.366;12.348;2024-01-06T10:40:07;16.70;;;8.53;;
18190;SDS011;47004;51.366;12.348;2024-01-06T10:42:09;15.67;;;8.60;;
18190;SDS011;47004;51.366;12.348;2024-01-06T10:44:15;13.80;;;7.80;;
18190;SDS011;47004;51.366;12.348;2024-01-06T10:46:18;17.70;;;8.70;;
18190;SDS011;47004;51.366;12.348;2024-01-06T10:48:20;14.90;;;7.97;;
18190;SDS011;47004;51.366;12.348;2024-01-06T10:50:25;15.87;;;8.70;;
18190;SDS011;47004;51.366;12.348;2024-01-06T10:52:28;15.73;;;8.17;;
18190;SDS011;47004;51.366;12.348;2024-01-06T10:54:31;15.40;;;8.73;;
18190;SDS011;47004;51.366;12.348;2024-01-06T10:56:37;18.90;;;8.93;;
18190;SDS011;47004;51.366;12.348;2024-01-06T10:58:39;17.67;;;8.90;;
18190;SDS011;47004;51.366;12.348;2024-01-06T11:00:52;19.80;;;9.10;;
18190;SDS011;47004;51.366;12.348;2024-01-06T11:02:56;19.23;;;9.37;;
18190;SDS011;47004;51.366;12.348;2024-01-06T11:04:59;16.37;;;8.83;;
18190;SDS011;47004;51.366;12.348;2024-01-06T11:07:03;18.87;;;9.17;;
18190;SDS011;47004;51.366;12.348;2024-01-06T11:09:09;18.57;;;9.40;;
18190;SDS011;47004;51.366;12.348;2024-01-06T11:11:15;17.17;;;8.90;;
18190;SDS011;47004;51.366;12.348;2024-01-06T11:13:21;16.93;;;8.77;;
18190;SDS011;47004;51.366;12.348;2024-01-06T11:15:43;13.47;;;8.43;;
18190;SDS011;47004;51.366;12.348;2024-01-06T11:17:50;12.87;;;7.37;;
18190;SDS011;47004;51.366;12.348;2024-01-06T11:20:01;16.30;;;7.80;;
18190;SDS011;47004;51.366;12.348;2024-01-06T11:22:19;15.43;;;8.70;;
18190;SDS011;47004;51.366;12.348;2024-01-06T11:24:24;16.43;;;9.53;;
18190;SDS011;47004;51.366;12.348;2024-01-06T11:26:26;24.23;;;10.30;;
18190;SDS011;47004;51.366;12.348;2024-01-06T11:28:27;17.07;;;9.77;;
18190;SDS011;47004;51.366;12.348;2024-01-06T11:30:29;16.33;;;9.13;;
18190;SDS011;47004;51.366;12.348;2024-01-06T11:32:32;15.87;;;8.57;;
18190;SDS011;47004;51.366;12.348;2024-01-06T11:34:36;15.40;;;8.30;;
18190;SDS011;47004;51.366;12.348;2024-01-06T11:36:37;16.63;;;8.40;;
18190;SDS011;47004;51.366;12.348;2024-01-06T11:38:41;15.50;;;8.87;;
18190;SDS011;47004;51.366;12.348;2024-01-06T11:40:46;17.10;;;8.17;;
18190;SDS011;47004;51.366;12.348;2024-01-06T11:42:52;14.73;;;8.23;;
18190;SDS011;47004;51.366;12.348;2024-01-06T11:45:04;14.80;;;8.57;;
18190;SDS011;47004;51.366;12.348;2024-01-06T11:47:07;16.20;;;8.57;;
18190;SDS011;47004;51.366;12.348;2024-01-06T11:49:12;13.13;;;7.43;;
18190;SDS011;47004;51.366;12.348;2024-01-06T11:51:16;20.93;;;10.13;;
18190;SDS011;47004;51.366;12.348;2024-01-06T11:53:19;16.53;;;9.20;;
18190;SDS011;47004;51.366;12.348;2024-01-06T11:55:22;16.53;;;8.50;;
18190;SDS011;47004;51.366;12.348;2024-01-06T11:57:28;14.03;;;8.10;;
18190;SDS011;47004;51.366;12.348;2024-01-06T11:59:33;19.60;;;9.13;;
18190;SDS011;47004;51.366;12.348;2024-01-06T12:01:36;17.00;;;9.33;;
18190;SDS011;47004;51.366;12.348;2024-01-06T12:03:38;19.47;;;9.30;;
18190;SDS011;47004;51.366;12.348;2024-01-06T12:05:40;15.33;;;8.53;;
18190;SDS011;47004;51.366;12.348;2024-01-06T12:07:42;14.17;;;8.10;;
18190;SDS011;47004;51.366;12.348;2024-01-06T12:09:43;19.03;;;9.13;;
18190;SDS011;47004;51.366;12.348;2024-01-06T12:11:47;14.47;;;8.13;;
18190;SDS011;47004;51.366;12.348;2024-01-06T12:13:49;15.03;;;8.83;;
18190;SDS011;47004;51.366;12.348;2024-01-06T12:15:51;14.67;;;8.13;;
18190;SDS011;47004;51.366;12.348;2024-01-06T12:17:53;13.47;;;8.30;;
18190;SDS011;47004;51.366;12.348;2024-01-06T12:19:55;14.33;;;8.13;;
18190;SDS011;47004;51.366;12.348;2024-01-06T12:21:57;13.23;;;7.73;;
18190;SDS011;47004;51.366;12.348;2024-01-06T12:24:12;14.80;;;8.80;;
18190;SDS011;47004;51.366;12.348;2024-01-06T12:26:14;14.00;;;8.00;;
18190;SDS011;47004;51.366;12.348;2024-01-06T12:28:22;15.00;;;8.17;;
18190;SDS011;47004;51.366;12.348;2024-01-06T12:30:24;13.83;;;8.20;;
18190;SDS011;47004;51.366;12.348;2024-01-06T12:32:27;17.73;;;9.20;;
18190;SDS011;47004;51.366;12.348;2024-01-06T12:34:29;15.60;;;8.77;;
18190;SDS011;47004;51.366;12.348;2024-01-06T12:36:31;15.87;;;9.47;;
18190;SDS011;47004;51.366;12.348;2024-01-06T12:38:32;14.93;;;8.97;;
18190;SDS011;47004;51.366;12.348;2024-01-06T12:40:35;19.47;;;9.83;;
18190;SDS011;47004;51.366;12.348;2024-01-06T12:42:37;18.53;;;10.07;;
18190;SDS011;47004;51.366;12.348;2024-01-06T12:44:40;18.97;;;10.47;;
18190;SDS011;47004;51.366;12.348;2024-01-06T12:46:42;20.07;;;10.37;;
18190;SDS011;47004;51.366;12.348;2024-01-06T12:48:44;21.07;;;10.63;;
18190;SDS011;47004;51.366;12.348;2024-01-06T12:50:46;18.83;;;10.73;;
18190;SDS011;47004;51.366;12.348;2024-01-06T12:52:47;21.87;;;11.80;;
18190;SDS011;47004;51.366;12.348;2024-01-06T12:54:49;22.50;;;11.33;;
18190;SDS011;47004;51.366;12.348;2024-01-06T12:56:53;21.63;;;11.83;;
18190;SDS011;47004;51.366;12.348;2024-01-06T12:58:55;23.97;;;12.87;;
18190;SDS011;47004;51.366;12.348;2024-01-06T13:00:59;20.53;;;12.17;;
18190;SDS011;47004;51.366;12.348;2024-01-06T13:03:02;25.13;;;13.00;;
18190;SDS011;47004;51.366;12.348;2024-01-06T13:05:04;25.23;;;12.80;;
18190;SDS011;47004;51.366;12.348;2024-01-06T13:07:12;24.73;;;12.57;;
18190;SDS011;47004;51.366;12.348;2024-01-06T13:09:14;25.57;;;11.90;;
18190;SDS011;47004;51.366;12.348;2024-01-06T13:11:21;27.57;;;12.37;;
18190;SDS011;47004;51.366;12.348;2024-01-06T13:13:27;29.10;;;14.17;;
18190;SDS011;47004;51.366;12.348;2024-01-06T13:15:32;22.63;;;11.93;;